sensor_id;sensor_type;location;lat;lon;timestamp;pressure;altitude;pressure_sealevel;temperature;humidity
23261;BME280;11799;47.740;-3.390;2022-09-17T00:00:45;102073.41;;;12.66;66.14
23261;BME280;11799;47.740;-3.390;2022-09-17T00:03:11;102073.81;;;12.60;66.39
23261;BME280;11799;47.740;-3.390;2022-09-17T00:05:37;102068.09;;;12.66;66.00
23261;BME280;11799;47.740;-3.390;2022-09-17T00:08:08;102067.56;;;12.61;66.14
23261;BME280;11799;47.740;-3.390;2022-09-17T00:10:39;102056.31;;;12.57;66.58
23261;BME280;11799;47.740;-3.390;2022-09-17T00:13:05;102063.13;;;12.62;66.71
23261;BME280;11799;47.740;-3.390;2022-09-17T00:15:31;102066.06;;;12.57;66.76
23261;BME280;11799;47.740;-3.390;2022-09-17T00:17:57;102065.88;;;12.60;66.44
23261;BME280;11799;47.740;-3.390;2022-09-17T00:20:24;102060.03;;;12.55;66.13
23261;BME280;11799;47.740;-3.390;2022-09-17T00:22:50;102060.88;;;12.55;66.76
23261;BME280;11799;47.740;-3.390;2022-09-17T00:25:16;102067.97;;;12.55;66.34
23261;BME280;11799;47.740;-3.390;2022-09-17T00:27:42;102066.28;;;12.54;66.71
23261;BME280;11799;47.740;-3.390;2022-09-17T00:30:08;102066.28;;;12.54;67.45
23261;BME280;11799;47.740;-3.390;2022-09-17T00:32:34;102070.81;;;12.52;67.53
23261;BME280;11799;47.740;-3.390;2022-09-17T00:34:59;102065.31;;;12.55;67.18
23261;BME280;11799;47.740;-3.390;2022-09-17T00:37:25;102068.81;;;12.55;66.28
23261;BME280;11799;47.740;-3.390;2022-09-17T00:39:50;102069.97;;;12.51;66.95
23261;BME280;11799;47.740;-3.390;2022-09-17T00:42:18;102062.31;;;12.47;67.46
23261;BME280;11799;47.740;-3.390;2022-09-17T00:44:50;102068.47;;;12.47;66.67
23261;BME280;11799;47.740;-3.390;2022-09-17T00:47:30;102064.78;;;12.50;67.05
23261;BME280;11799;47.740;-3.390;2022-09-17T00:50:05;102064.22;;;12.45;67.14
23261;BME280;11799;47.740;-3.390;2022-09-17T00:52:52;102059.97;;;12.42;67.24
23261;BME280;11799;47.740;-3.390;2022-09-17T00:55:23;102068.88;;;12.41;67.58
23261;BME280;11799;47.740;-3.390;2022-09-17T00:57:54;102063.78;;;12.38;67.97
23261;BME280;11799;47.740;-3.390;2022-09-17T01:00:21;102072.28;;;12.43;68.06
23261;BME280;11799;47.740;-3.390;2022-09-17T01:02:47;102071.72;;;12.38;67.69
23261;BME280;11799;47.740;-3.390;2022-09-17T01:05:14;102071.81;;;12.37;68.01
23261;BME280;11799;47.740;-3.390;2022-09-17T01:13:51;102076.16;;;12.38;68.54
23261;BME280;11799;47.740;-3.390;2022-09-17T01:18:55;102071.91;;;12.35;68.80
23261;BME280;11799;47.740;-3.390;2022-09-17T01:35:24;102077.72;;;12.28;69.68
23261;BME280;11799;47.740;-3.390;2022-09-17T01:40:54;102070.16;;;12.21;69.51
23261;BME280;11799;47.740;-3.390;2022-09-17T01:43:29;102078.97;;;12.22;69.28
23261;BME280;11799;47.740;-3.390;2022-09-17T01:46:04;102079.81;;;12.22;69.10
23261;BME280;11799;47.740;-3.390;2022-09-17T01:48:39;102070.38;;;12.18;69.28
23261;BME280;11799;47.740;-3.390;2022-09-17T01:51:13;102065.03;;;12.06;69.53
23261;BME280;11799;47.740;-3.390;2022-09-17T01:53:53;102075.97;;;12.14;69.70
23261;BME280;11799;47.740;-3.390;2022-09-17T01:56:22;102087.31;;;12.16;69.76
23261;BME280;11799;47.740;-3.390;2022-09-17T02:01:39;102082.94;;;12.15;69.55
23261;BME280;11799;47.740;-3.390;2022-09-17T02:04:18;102089.63;;;12.08;70.08
23261;BME280;11799;47.740;-3.390;2022-09-17T02:06:48;102087.06;;;12.06;69.84
23261;BME280;11799;47.740;-3.390;2022-09-17T02:09:20;102093.88;;;12.10;70.44
23261;BME280;11799;47.740;-3.390;2022-09-17T02:11:53;102092.16;;;12.09;70.14
23261;BME280;11799;47.740;-3.390;2022-09-17T02:14:34;102084.44;;;12.06;70.54
23261;BME280;11799;47.740;-3.390;2022-09-17T02:17:08;102087.25;;;12.03;70.46
23261;BME280;11799;47.740;-3.390;2022-09-17T02:19:36;102093.22;;;12.07;70.25
23261;BME280;11799;47.740;-3.390;2022-09-17T02:24:57;102093.41;;;12.04;69.87
23261;BME280;11799;47.740;-3.390;2022-09-17T02:30:14;102087.38;;;12.02;69.52
23261;BME280;11799;47.740;-3.390;2022-09-17T02:32:40;102090.19;;;11.99;70.01
23261;BME280;11799;47.740;-3.390;2022-09-17T02:35:08;102087.25;;;12.03;70.03
23261;BME280;11799;47.740;-3.390;2022-09-17T02:37:34;102091.72;;;12.03;70.50
23261;BME280;11799;47.740;-3.390;2022-09-17T02:40:00;102087.84;;;11.94;71.04
23261;BME280;11799;47.740;-3.390;2022-09-17T02:45:43;102091.53;;;11.92;70.65
23261;BME280;11799;47.740;-3.390;2022-09-17T02:48:23;102095.31;;;11.87;71.12
23261;BME280;11799;47.740;-3.390;2022-09-17T02:51:18;102098.72;;;11.89;70.74
23261;BME280;11799;47.740;-3.390;2022-09-17T02:58:57;102090.88;;;11.88;71.28
23261;BME280;11799;47.740;-3.390;2022-09-17T03:01:34;102090.22;;;11.84;71.26
23261;BME280;11799;47.740;-3.390;2022-09-17T03:04:04;102089.19;;;11.87;70.68
23261;BME280;11799;47.740;-3.390;2022-09-17T03:06:31;102088.63;;;11.82;71.65
23261;BME280;11799;47.740;-3.390;2022-09-17T03:08:57;102091.25;;;11.82;71.46
23261;BME280;11799;47.740;-3.390;2022-09-17T03:11:22;102090.31;;;11.83;71.33
23261;BME280;11799;47.740;-3.390;2022-09-17T03:13:48;102087.00;;;11.79;71.20
23261;BME280;11799;47.740;-3.390;2022-09-17T03:16:14;102092.13;;;11.82;71.64
23261;BME280;11799;47.740;-3.390;2022-09-17T03:18:40;102086.72;;;11.84;70.87
23261;BME280;11799;47.740;-3.390;2022-09-17T03:21:05;102084.47;;;11.78;71.78
23261;BME280;11799;47.740;-3.390;2022-09-17T03:23:31;102091.34;;;11.80;71.83
23261;BME280;11799;47.740;-3.390;2022-09-17T03:25:58;102092.22;;;11.81;71.78
23261;BME280;11799;47.740;-3.390;2022-09-17T03:28:23;102097.59;;;11.79;71.85
23261;BME280;11799;47.740;-3.390;2022-09-17T03:30:51;102101.00;;;11.81;71.14
23261;BME280;11799;47.740;-3.390;2022-09-17T03:33:17;102099.31;;;11.80;71.41
23261;BME280;11799;47.740;-3.390;2022-09-17T03:35:44;102101.09;;;11.80;70.97
23261;BME280;11799;47.740;-3.390;2022-09-17T03:38:10;102105.53;;;11.79;71.83
23261;BME280;11799;47.740;-3.390;2022-09-17T03:40:36;102100.25;;;11.79;71.51
23261;BME280;11799;47.740;-3.390;2022-09-17T03:43:02;102096.91;;;11.76;71.71
23261;BME280;11799;47.740;-3.390;2022-09-17T03:45:27;102098.78;;;11.74;71.88
23261;BME280;11799;47.740;-3.390;2022-09-17T03:47:53;102101.34;;;11.75;71.94
23261;BME280;11799;47.740;-3.390;2022-09-17T03:50:18;102103.84;;;11.78;71.17
23261;BME280;11799;47.740;-3.390;2022-09-17T03:52:44;102111.28;;;11.72;71.79
23261;BME280;11799;47.740;-3.390;2022-09-17T03:55:09;102108.53;;;11.73;71.73
23261;BME280;11799;47.740;-3.390;2022-09-17T03:57:36;102102.56;;;11.70;72.30
23261;BME280;11799;47.740;-3.390;2022-09-17T04:00:02;102102.56;;;11.70;71.43
23261;BME280;11799;47.740;-3.390;2022-09-17T04:02:37;102106.44;;;11.64;72.52
23261;BME280;11799;47.740;-3.390;2022-09-17T04:05:03;102103.91;;;11.63;72.01
23261;BME280;11799;47.740;-3.390;2022-09-17T04:07:29;102104.94;;;11.60;71.65
23261;BME280;11799;47.740;-3.390;2022-09-17T04:09:54;102109.56;;;11.56;72.77
23261;BME280;11799;47.740;-3.390;2022-09-17T04:12:20;102112.34;;;11.55;72.02
23261;BME280;11799;47.740;-3.390;2022-09-17T04:14:45;102109.78;;;11.53;72.24
23261;BME280;11799;47.740;-3.390;2022-09-17T04:17:11;102108.72;;;11.56;72.39
23261;BME280;11799;47.740;-3.390;2022-09-17T04:19:42;102109.03;;;11.51;72.33
23261;BME280;11799;47.740;-3.390;2022-09-17T04:22:08;102112.53;;;11.52;72.61
23261;BME280;11799;47.740;-3.390;2022-09-17T04:24:33;102112.72;;;11.49;72.28
23261;BME280;11799;47.740;-3.390;2022-09-17T04:26:59;102113.56;;;11.49;72.17
23261;BME280;11799;47.740;-3.390;2022-09-17T04:29:24;102109.50;;;11.44;71.94
23261;BME280;11799;47.740;-3.390;2022-09-17T04:31:50;102118.28;;;11.44;71.88
23261;BME280;11799;47.740;-3.390;2022-09-17T04:34:15;102120.06;;;11.44;71.93
23261;BME280;11799;47.740;-3.390;2022-09-17T04:36:41;102117.53;;;11.42;72.23
23261;BME280;11799;47.740;-3.390;2022-09-17T04:39:07;102119.31;;;11.42;72.03
23261;BME280;11799;47.740;-3.390;2022-09-17T04:41:33;102118.47;;;11.41;72.54
23261;BME280;11799;47.740;-3.390;2022-09-17T04:43:59;102117.53;;;11.42;72.00
23261;BME280;11799;47.740;-3.390;2022-09-17T04:46:24;102119.59;;;11.37;71.86
23261;BME280;11799;47.740;-3.390;2022-09-17T04:48:50;102124.78;;;11.39;71.70
23261;BME280;11799;47.740;-3.390;2022-09-17T04:51:15;102122.25;;;11.37;71.62
23261;BME280;11799;47.740;-3.390;2022-09-17T04:53:41;102124.31;;;11.32;71.51
23261;BME280;11799;47.740;-3.390;2022-09-17T04:56:06;102127.72;;;11.34;72.21
23261;BME280;11799;47.740;-3.390;2022-09-17T04:58:32;102142.47;;;11.38;71.63
23261;BME280;11799;47.740;-3.390;2022-09-17T05:00:57;102129.41;;;11.35;71.63
23261;BME280;11799;47.740;-3.390;2022-09-17T05:03:23;102118.84;;;11.35;71.68
23261;BME280;11799;47.740;-3.390;2022-09-17T05:05:49;102126.78;;;11.35;71.89
23261;BME280;11799;47.740;-3.390;2022-09-17T05:08:14;102132.06;;;11.35;71.09
23261;BME280;11799;47.740;-3.390;2022-09-17T05:10:40;102133.66;;;11.38;71.54
23261;BME280;11799;47.740;-3.390;2022-09-17T05:13:05;102129.50;;;11.34;71.56
23261;BME280;11799;47.740;-3.390;2022-09-17T05:15:31;102133.84;;;11.35;71.42
23261;BME280;11799;47.740;-3.390;2022-09-17T05:17:56;102137.44;;;11.34;71.02
23261;BME280;11799;47.740;-3.390;2022-09-17T05:20:22;102133.28;;;11.30;70.95
23261;BME280;11799;47.740;-3.390;2022-09-17T05:22:50;102140.09;;;11.34;71.47
23261;BME280;11799;47.740;-3.390;2022-09-17T05:25:17;102142.63;;;11.35;71.30
23261;BME280;11799;47.740;-3.390;2022-09-17T05:27:43;102137.44;;;11.34;71.65
23261;BME280;11799;47.740;-3.390;2022-09-17T05:30:10;102140.19;;;11.32;71.23
23261;BME280;11799;47.740;-3.390;2022-09-17T05:32:36;102140.09;;;11.34;71.13
23261;BME280;11799;47.740;-3.390;2022-09-17T05:35:04;102146.41;;;11.31;71.29
23261;BME280;11799;47.740;-3.390;2022-09-17T05:37:30;102153.22;;;11.35;71.31
23261;BME280;11799;47.740;-3.390;2022-09-17T05:39:55;102160.41;;;11.33;70.88
23261;BME280;11799;47.740;-3.390;2022-09-17T05:42:21;102153.31;;;11.34;70.77
23261;BME280;11799;47.740;-3.390;2022-09-17T05:44:46;102156.91;;;11.33;70.81
23261;BME280;11799;47.740;-3.390;2022-09-17T05:47:12;102159.63;;;11.31;70.62
23261;BME280;11799;47.740;-3.390;2022-09-17T05:49:38;102149.91;;;11.32;70.65
23261;BME280;11799;47.740;-3.390;2022-09-17T05:52:03;102149.22;;;11.28;70.53
23261;BME280;11799;47.740;-3.390;2022-09-17T05:54:29;102162.38;;;11.30;70.79
23261;BME280;11799;47.740;-3.390;2022-09-17T05:56:55;102165.88;;;11.30;70.37
23261;BME280;11799;47.740;-3.390;2022-09-17T05:59:21;102161.50;;;11.29;70.88
23261;BME280;11799;47.740;-3.390;2022-09-17T06:01:46;102162.63;;;11.25;70.54
23261;BME280;11799;47.740;-3.390;2022-09-17T06:04:13;102161.88;;;11.23;70.50
23261;BME280;11799;47.740;-3.390;2022-09-17T06:06:38;102167.75;;;11.28;70.59
23261;BME280;11799;47.740;-3.390;2022-09-17T06:09:07;102153.66;;;11.28;70.76
23261;BME280;11799;47.740;-3.390;2022-09-17T06:11:33;102158.03;;;11.29;69.89
23261;BME280;11799;47.740;-3.390;2022-09-17T06:14:00;102166.13;;;11.25;70.70
23261;BME280;11799;47.740;-3.390;2022-09-17T06:16:26;102166.81;;;11.29;70.36
23261;BME280;11799;47.740;-3.390;2022-09-17T06:18:51;102171.50;;;11.24;70.48
23261;BME280;11799;47.740;-3.390;2022-09-17T06:21:18;102169.53;;;11.28;70.61
23261;BME280;11799;47.740;-3.390;2022-09-17T06:23:45;102177.38;;;11.29;70.67
23261;BME280;11799;47.740;-3.390;2022-09-17T06:26:10;102173.88;;;11.29;70.52
23261;BME280;11799;47.740;-3.390;2022-09-17T06:28:36;102178.06;;;11.33;70.67
23261;BME280;11799;47.740;-3.390;2022-09-17T06:31:03;102178.06;;;11.33;70.32
23261;BME280;11799;47.740;-3.390;2022-09-17T06:33:30;102187.69;;;11.34;70.73
23261;BME280;11799;47.740;-3.390;2022-09-17T06:36:00;102194.41;;;11.39;70.57
23261;BME280;11799;47.740;-3.390;2022-09-17T06:38:28;102192.53;;;11.41;70.50
23261;BME280;11799;47.740;-3.390;2022-09-17T06:40:54;102195.94;;;11.43;70.40
23261;BME280;11799;47.740;-3.390;2022-09-17T06:43:21;102192.16;;;11.47;70.31
23261;BME280;11799;47.740;-3.390;2022-09-17T06:45:54;102197.09;;;11.53;69.91
23261;BME280;11799;47.740;-3.390;2022-09-17T06:48:20;102195.16;;;11.55;70.37
23261;BME280;11799;47.740;-3.390;2022-09-17T06:50:46;102197.53;;;11.60;70.20
23261;BME280;11799;47.740;-3.390;2022-09-17T06:53:12;102195.56;;;11.64;69.44
23261;BME280;11799;47.740;-3.390;2022-09-17T06:55:38;102192.22;;;12.04;69.78
23261;BME280;11799;47.740;-3.390;2022-09-17T06:58:04;102196.00;;;13.09;66.58
23261;BME280;11799;47.740;-3.390;2022-09-17T07:00:29;102191.75;;;14.34;63.44
23261;BME280;11799;47.740;-3.390;2022-09-17T07:02:56;102192.56;;;15.65;59.38
23261;BME280;11799;47.740;-3.390;2022-09-17T07:05:23;102185.03;;;16.91;56.33
23261;BME280;11799;47.740;-3.390;2022-09-17T07:07:49;102184.09;;;18.06;51.28
23261;BME280;11799;47.740;-3.390;2022-09-17T07:10:15;102182.28;;;19.14;48.00
23261;BME280;11799;47.740;-3.390;2022-09-17T07:12:41;102189.03;;;19.94;44.96
23261;BME280;11799;47.740;-3.390;2022-09-17T07:15:07;102191.31;;;20.89;42.99
23261;BME280;11799;47.740;-3.390;2022-09-17T07:17:38;102179.66;;;21.41;41.64
23261;BME280;11799;47.740;-3.390;2022-09-17T07:20:08;102180.38;;;22.46;39.43
23261;BME280;11799;47.740;-3.390;2022-09-17T07:22:34;102180.16;;;22.89;38.16
23261;BME280;11799;47.740;-3.390;2022-09-17T07:25:00;102179.09;;;23.47;36.39
23261;BME280;11799;47.740;-3.390;2022-09-17T07:27:26;102183.22;;;23.90;35.29
23261;BME280;11799;47.740;-3.390;2022-09-17T07:29:53;102173.84;;;24.17;35.24
23261;BME280;11799;47.740;-3.390;2022-09-17T07:32:18;102176.47;;;24.64;34.26
23261;BME280;11799;47.740;-3.390;2022-09-17T07:34:44;102184.16;;;24.76;32.72
23261;BME280;11799;47.740;-3.390;2022-09-17T07:37:09;102188.84;;;25.05;34.81
23261;BME280;11799;47.740;-3.390;2022-09-17T07:39:35;102174.19;;;24.99;32.60
23261;BME280;11799;47.740;-3.390;2022-09-17T07:42:00;102185.59;;;24.63;34.35
23261;BME280;11799;47.740;-3.390;2022-09-17T07:44:28;102182.31;;;24.76;34.65
23261;BME280;11799;47.740;-3.390;2022-09-17T07:46:54;102185.91;;;24.38;35.43
23261;BME280;11799;47.740;-3.390;2022-09-17T07:49:19;102187.09;;;23.88;36.93
23261;BME280;11799;47.740;-3.390;2022-09-17T07:51:45;102183.66;;;23.38;38.82
23261;BME280;11799;47.740;-3.390;2022-09-17T07:54:11;102181.16;;;23.04;37.47
23261;BME280;11799;47.740;-3.390;2022-09-17T07:56:36;102182.56;;;22.58;38.51
23261;BME280;11799;47.740;-3.390;2022-09-17T07:59:02;102184.06;;;22.36;39.74
23261;BME280;11799;47.740;-3.390;2022-09-17T08:01:30;102180.00;;;21.98;40.69
23261;BME280;11799;47.740;-3.390;2022-09-17T08:03:58;102191.38;;;21.84;42.57
23261;BME280;11799;47.740;-3.390;2022-09-17T08:06:25;102193.06;;;21.59;39.45
23261;BME280;11799;47.740;-3.390;2022-09-17T08:08:53;102190.06;;;21.62;42.38
23261;BME280;11799;47.740;-3.390;2022-09-17T08:11:22;102198.16;;;21.45;41.72
23261;BME280;11799;47.740;-3.390;2022-09-17T08:13:49;102192.06;;;21.17;42.56
23261;BME280;11799;47.740;-3.390;2022-09-17T08:16:16;102197.66;;;21.05;41.63
23261;BME280;11799;47.740;-3.390;2022-09-17T08:18:42;102198.81;;;20.85;40.48
23261;BME280;11799;47.740;-3.390;2022-09-17T08:21:13;102198.44;;;20.80;43.07
23261;BME280;11799;47.740;-3.390;2022-09-17T08:23:40;102201.09;;;20.44;41.46
23261;BME280;11799;47.740;-3.390;2022-09-17T08:26:08;102201.56;;;20.30;41.36
23261;BME280;11799;47.740;-3.390;2022-09-17T08:28:37;102203.41;;;20.02;41.58
23261;BME280;11799;47.740;-3.390;2022-09-17T08:31:06;102207.03;;;20.11;43.85
23261;BME280;11799;47.740;-3.390;2022-09-17T08:33:34;102205.28;;;19.92;42.69
23261;BME280;11799;47.740;-3.390;2022-09-17T08:36:00;102208.31;;;19.70;41.91
23261;BME280;11799;47.740;-3.390;2022-09-17T08:38:30;102211.13;;;19.68;45.29
23261;BME280;11799;47.740;-3.390;2022-09-17T08:46:41;102202.56;;;19.26;43.52
23261;BME280;11799;47.740;-3.390;2022-09-17T08:52:08;102205.56;;;19.04;44.03
23261;BME280;11799;47.740;-3.390;2022-09-17T09:00:05;102214.84;;;18.71;44.42
23261;BME280;11799;47.740;-3.390;2022-09-17T09:05:16;102219.41;;;18.59;45.43
23261;BME280;11799;47.740;-3.390;2022-09-17T09:07:52;102215.72;;;18.51;44.72
23261;BME280;11799;47.740;-3.390;2022-09-17T09:10:21;102215.34;;;18.45;45.03
23261;BME280;11799;47.740;-3.390;2022-09-17T09:12:50;102212.50;;;18.37;44.16
23261;BME280;11799;47.740;-3.390;2022-09-17T09:17:49;102229.47;;;18.27;42.29
23261;BME280;11799;47.740;-3.390;2022-09-17T09:26:19;102222.94;;;18.10;42.82
23261;BME280;11799;47.740;-3.390;2022-09-17T09:34:08;102228.53;;;18.07;44.54
23261;BME280;11799;47.740;-3.390;2022-09-17T09:36:37;102223.06;;;18.08;43.35
23261;BME280;11799;47.740;-3.390;2022-09-17T09:39:20;102219.81;;;18.05;43.85
23261;BME280;11799;47.740;-3.390;2022-09-17T09:44:16;102219.38;;;18.00;43.95
23261;BME280;11799;47.740;-3.390;2022-09-17T10:00:53;102215.44;;;18.04;41.30
23261;BME280;11799;47.740;-3.390;2022-09-17T10:03:21;102234.28;;;18.02;39.18
23261;BME280;11799;47.740;-3.390;2022-09-17T10:06:02;102226.53;;;17.99;39.69
23261;BME280;11799;47.740;-3.390;2022-09-17T10:08:31;102232.16;;;17.96;39.28
23261;BME280;11799;47.740;-3.390;2022-09-17T10:11:00;102231.31;;;17.96;39.20
23261;BME280;11799;47.740;-3.390;2022-09-17T10:13:32;102232.28;;;17.95;40.38
23261;BME280;11799;47.740;-3.390;2022-09-17T10:18:41;102229.66;;;18.04;39.87
23261;BME280;11799;47.740;-3.390;2022-09-17T10:21:20;102231.09;;;18.08;41.23
23261;BME280;11799;47.740;-3.390;2022-09-17T10:23:47;102223.06;;;18.08;39.31
23261;BME280;11799;47.740;-3.390;2022-09-17T10:26:22;102226.31;;;18.12;40.85
23261;BME280;11799;47.740;-3.390;2022-09-17T10:28:59;102221.38;;;18.07;39.18
23261;BME280;11799;47.740;-3.390;2022-09-17T10:31:26;102215.91;;;18.09;38.88
23261;BME280;11799;47.740;-3.390;2022-09-17T10:36:37;102225.34;;;18.13;38.32
23261;BME280;11799;47.740;-3.390;2022-09-17T10:42:15;102214.41;;;18.26;38.94
23261;BME280;11799;47.740;-3.390;2022-09-17T10:44:58;102211.88;;;18.24;40.13
23261;BME280;11799;47.740;-3.390;2022-09-17T10:47:28;102211.34;;;18.30;41.47
23261;BME280;11799;47.740;-3.390;2022-09-17T10:49:58;102208.38;;;18.33;39.52
23261;BME280;11799;47.740;-3.390;2022-09-17T10:57:41;102202.06;;;18.34;37.90
23261;BME280;11799;47.740;-3.390;2022-09-17T11:00:14;102201.78;;;18.37;37.73
23261;BME280;11799;47.740;-3.390;2022-09-17T11:10:43;102204.50;;;18.47;37.62
23261;BME280;11799;47.740;-3.390;2022-09-17T11:13:18;102195.06;;;18.43;36.58
23261;BME280;11799;47.740;-3.390;2022-09-17T11:21:47;102185.19;;;18.53;41.23
23261;BME280;11799;47.740;-3.390;2022-09-17T11:30:18;102184.53;;;18.61;35.74
23261;BME280;11799;47.740;-3.390;2022-09-17T11:33:03;102185.38;;;18.61;37.90
23261;BME280;11799;47.740;-3.390;2022-09-17T11:35:37;102177.88;;;18.55;38.96
23261;BME280;11799;47.740;-3.390;2022-09-17T11:41:18;102171.69;;;18.55;38.21
23261;BME280;11799;47.740;-3.390;2022-09-17T11:46:26;102169.19;;;18.72;39.22
23261;BME280;11799;47.740;-3.390;2022-09-17T11:54:00;102157.50;;;18.73;38.07
23261;BME280;11799;47.740;-3.390;2022-09-17T12:05:10;102151.59;;;18.99;35.68
23261;BME280;11799;47.740;-3.390;2022-09-17T12:08:38;102161.56;;;19.06;36.27
23261;BME280;11799;47.740;-3.390;2022-09-17T12:13:33;102155.50;;;19.33;37.59
23261;BME280;11799;47.740;-3.390;2022-09-17T12:16:24;102160.53;;;19.46;36.79
23261;BME280;11799;47.740;-3.390;2022-09-17T12:21:53;102157.66;;;19.67;36.25
23261;BME280;11799;47.740;-3.390;2022-09-17T12:24:28;102152.28;;;19.76;35.28
23261;BME280;11799;47.740;-3.390;2022-09-17T12:42:58;102123.91;;;20.11;35.82
23261;BME280;11799;47.740;-3.390;2022-09-17T12:48:24;102124.69;;;20.21;34.80
23261;BME280;11799;47.740;-3.390;2022-09-17T12:54:30;102119.94;;;20.15;35.63
23261;BME280;11799;47.740;-3.390;2022-09-17T12:59:12;102118.31;;;20.22;36.60
23261;BME280;11799;47.740;-3.390;2022-09-17T13:07:19;102102.53;;;20.19;35.94
23261;BME280;11799;47.740;-3.390;2022-09-17T13:23:14;102095.09;;;20.31;35.87
23261;BME280;11799;47.740;-3.390;2022-09-17T13:25:50;102095.41;;;20.28;36.06
23261;BME280;11799;47.740;-3.390;2022-09-17T13:28:17;102088.34;;;20.27;35.88
23261;BME280;11799;47.740;-3.390;2022-09-17T13:31:00;102080.25;;;20.19;35.39
23261;BME280;11799;47.740;-3.390;2022-09-17T13:39:00;102075.78;;;20.27;35.65
23261;BME280;11799;47.740;-3.390;2022-09-17T13:41:27;102077.63;;;20.27;35.49
23261;BME280;11799;47.740;-3.390;2022-09-17T13:43:54;102076.31;;;20.31;35.46
23261;BME280;11799;47.740;-3.390;2022-09-17T13:46:22;102076.00;;;20.34;36.28
23261;BME280;11799;47.740;-3.390;2022-09-17T13:48:52;102074.75;;;20.38;35.89
23261;BME280;11799;47.740;-3.390;2022-09-17T13:53:55;102067.53;;;20.21;34.70
23261;BME280;11799;47.740;-3.390;2022-09-17T13:56:31;102070.50;;;20.18;34.40
23261;BME280;11799;47.740;-3.390;2022-09-17T13:59:25;102064.66;;;20.22;35.27
23261;BME280;11799;47.740;-3.390;2022-09-17T14:15:30;102061.97;;;20.04;35.85
23261;BME280;11799;47.740;-3.390;2022-09-17T14:17:56;102050.34;;;20.14;36.93
23261;BME280;11799;47.740;-3.390;2022-09-17T14:20:23;102054.41;;;20.18;36.00
23261;BME280;11799;47.740;-3.390;2022-09-17T14:22:57;102047.75;;;20.22;36.24
23261;BME280;11799;47.740;-3.390;2022-09-17T14:25:46;102046.72;;;20.23;35.09
23261;BME280;11799;47.740;-3.390;2022-09-17T14:28:23;102042.84;;;20.17;33.94
23261;BME280;11799;47.740;-3.390;2022-09-17T14:30:53;102041.16;;;20.16;34.53
23261;BME280;11799;47.740;-3.390;2022-09-17T14:33:25;102039.47;;;20.15;34.99
23261;BME280;11799;47.740;-3.390;2022-09-17T14:36:01;102042.22;;;20.23;34.85
23261;BME280;11799;47.740;-3.390;2022-09-17T14:38:40;102033.16;;;20.24;36.24
23261;BME280;11799;47.740;-3.390;2022-09-17T14:46:09;102031.31;;;20.25;36.97
23261;BME280;11799;47.740;-3.390;2022-09-17T14:48:38;102032.72;;;20.11;35.48
23261;BME280;11799;47.740;-3.390;2022-09-17T14:54:25;102031.03;;;20.10;37.62
23261;BME280;11799;47.740;-3.390;2022-09-17T14:56:37;102033.78;;;20.00;34.90
23261;BME280;11799;47.740;-3.390;2022-09-17T15:01:46;102021.97;;;19.93;36.32
23261;BME280;11799;47.740;-3.390;2022-09-17T15:06:38;102022.28;;;19.90;35.20
23261;BME280;11799;47.740;-3.390;2022-09-17T15:09:04;102021.81;;;19.95;35.33
23261;BME280;11799;47.740;-3.390;2022-09-17T15:11:34;102018.44;;;19.93;35.47
23261;BME280;11799;47.740;-3.390;2022-09-17T15:14:04;102016.47;;;19.95;36.97
23261;BME280;11799;47.740;-3.390;2022-09-17T15:16:31;102012.09;;;19.94;35.89
23261;BME280;11799;47.740;-3.390;2022-09-17T15:19:00;102023.22;;;19.99;35.99
23261;BME280;11799;47.740;-3.390;2022-09-17T15:23:57;102019.38;;;20.01;35.98
23261;BME280;11799;47.740;-3.390;2022-09-17T15:26:29;102014.88;;;20.02;36.09
23261;BME280;11799;47.740;-3.390;2022-09-17T15:28:56;102019.38;;;20.01;35.33
23261;BME280;11799;47.740;-3.390;2022-09-17T15:31:23;102014.88;;;20.02;35.88
23261;BME280;11799;47.740;-3.390;2022-09-17T15:33:49;102013.03;;;20.02;35.42
23261;BME280;11799;47.740;-3.390;2022-09-17T15:36:20;102014.31;;;19.98;35.20
23261;BME280;11799;47.740;-3.390;2022-09-17T15:38:48;102004.75;;;19.96;34.44
23261;BME280;11799;47.740;-3.390;2022-09-17T15:43:52;102003.50;;;19.90;34.51
23261;BME280;11799;47.740;-3.390;2022-09-17T15:46:27;102002.66;;;19.90;34.94
23261;BME280;11799;47.740;-3.390;2022-09-17T15:48:56;102007.34;;;19.88;36.40
23261;BME280;11799;47.740;-3.390;2022-09-17T15:51:30;101998.91;;;19.83;36.14
23261;BME280;11799;47.740;-3.390;2022-09-17T15:53:58;101992.06;;;19.70;35.58
23261;BME280;11799;47.740;-3.390;2022-09-17T15:56:32;101995.19;;;19.66;35.71
23261;BME280;11799;47.740;-3.390;2022-09-17T16:04:20;101998.19;;;19.63;36.69
23261;BME280;11799;47.740;-3.390;2022-09-17T16:06:53;101996.38;;;19.63;36.63
23261;BME280;11799;47.740;-3.390;2022-09-17T16:12:03;101994.44;;;19.56;35.58
23261;BME280;11799;47.740;-3.390;2022-09-17T16:14:29;101998.09;;;19.55;36.64
23261;BME280;11799;47.740;-3.390;2022-09-17T16:16:54;102006.44;;;19.52;36.33
23261;BME280;11799;47.740;-3.390;2022-09-17T16:19:21;101985.41;;;19.47;35.82
23261;BME280;11799;47.740;-3.390;2022-09-17T16:21:47;101989.78;;;19.48;36.17
23261;BME280;11799;47.740;-3.390;2022-09-17T16:24:12;101989.94;;;19.46;37.08
23261;BME280;11799;47.740;-3.390;2022-09-17T16:26:38;101987.69;;;19.42;37.33
23261;BME280;11799;47.740;-3.390;2022-09-17T16:29:07;101988.00;;;19.39;36.66
23261;BME280;11799;47.740;-3.390;2022-09-17T16:31:35;102000.00;;;19.35;36.46
23261;BME280;11799;47.740;-3.390;2022-09-17T16:34:00;101999.44;;;19.31;37.48
23261;BME280;11799;47.740;-3.390;2022-09-17T16:36:26;101998.06;;;19.27;37.54
23261;BME280;11799;47.740;-3.390;2022-09-17T16:38:55;101996.66;;;19.23;38.22
23261;BME280;11799;47.740;-3.390;2022-09-17T16:41:21;102001.31;;;19.21;37.10
23261;BME280;11799;47.740;-3.390;2022-09-17T16:43:46;101997.25;;;19.17;37.49
23261;BME280;11799;47.740;-3.390;2022-09-17T16:46:12;101997.53;;;19.14;37.56
23261;BME280;11799;47.740;-3.390;2022-09-17T16:48:38;102006.84;;;19.10;37.16